createdAt,value
2018-03-29T00:00:43.645Z,3.39
2018-03-29T00:01:43.654Z,3.46
2018-03-29T00:02:43.668Z,3.50
2018-03-29T00:03:43.687Z,3.50
2018-03-29T00:04:43.703Z,3.46
2018-03-29T00:05:43.721Z,3.42
2018-03-29T00:06:43.734Z,3.37
2018-03-29T00:07:43.753Z,3.23
2018-03-29T00:08:43.768Z,3.22
2018-03-29T00:09:43.783Z,3.25
2018-03-29T00:10:43.807Z,3.34
2018-03-29T00:11:43.817Z,3.30
2018-03-29T00:12:43.833Z,3.30
2018-03-29T00:13:43.856Z,3.34
2018-03-29T00:14:43.871Z,3.20
2018-03-29T00:15:43.884Z,3.28
2018-03-29T00:16:43.898Z,3.20
2018-03-29T00:17:43.955Z,3.19
2018-03-29T00:18:43.931Z,3.19
2018-03-29T00:19:43.951Z,3.07
2018-03-29T00:20:43.970Z,3.17
2018-03-29T00:21:43.986Z,3.10
2018-03-29T00:22:44.007Z,3.17
2018-03-29T00:23:44.011Z,3.22
2018-03-29T00:24:44.036Z,3.19
2018-03-29T00:25:44.046Z,3.30
2018-03-29T00:26:44.065Z,3.28
2018-03-29T00:27:44.082Z,3.17
2018-03-29T00:28:44.146Z,2.98
2018-03-29T00:29:44.116Z,3.01
2018-03-29T00:30:44.131Z,2.99
2018-03-29T00:31:44.156Z,3.17
2018-03-29T00:32:44.168Z,3.15
2018-03-29T00:33:44.184Z,3.16
2018-03-29T00:34:44.198Z,3.13
2018-03-29T00:35:44.220Z,3.13
2018-03-29T00:36:44.232Z,3.17
2018-03-29T00:37:44.246Z,3.15
2018-03-29T00:38:44.265Z,3.08
2018-03-29T00:39:44.280Z,3.05
2018-03-29T00:40:44.302Z,3.05
2018-03-29T00:41:44.317Z,3.05
2018-03-29T00:42:44.335Z,2.95
2018-03-29T00:43:44.351Z,2.98
2018-03-29T00:44:44.376Z,2.97
2018-03-29T00:45:44.381Z,2.94
2018-03-29T00:46:44.400Z,2.95
2018-03-29T00:47:44.418Z,2.89
2018-03-29T00:48:44.430Z,2.84
2018-03-29T00:49:44.450Z,3.02
2018-03-29T00:50:44.464Z,3.17
2018-03-29T00:51:44.485Z,3.22
2018-03-29T00:52:44.504Z,3.30
2018-03-29T00:53:44.526Z,3.34
2018-03-29T00:54:44.541Z,3.52
2018-03-29T00:55:44.553Z,3.50
2018-03-29T00:56:44.570Z,3.35
2018-03-29T00:57:44.585Z,3.35
2018-03-29T00:58:44.600Z,3.33
2018-03-29T00:59:44.624Z,3.13
2018-03-29T01:00:44.638Z,3.12
2018-03-29T01:01:44.649Z,3.02
2018-03-29T01:02:44.664Z,3.15
2018-03-29T01:03:44.685Z,3.15
2018-03-29T01:04:44.704Z,3.20
2018-03-29T01:05:44.718Z,3.15
2018-03-29T01:06:44.739Z,3.30
2018-03-29T01:07:44.749Z,3.22
2018-03-29T01:08:44.770Z,3.17
2018-03-29T01:09:44.784Z,3.05
2018-03-29T01:10:44.800Z,3.12
2018-03-29T01:11:44.822Z,3.15
2018-03-29T01:12:44.837Z,3.02
2018-03-29T01:13:44.849Z,2.95
2018-03-29T01:14:44.868Z,3.12
2018-03-29T01:15:44.889Z,2.97
2018-03-29T01:16:44.904Z,2.97
2018-03-29T01:17:44.923Z,2.99
2018-03-29T01:18:44.941Z,2.90
2018-03-29T01:19:44.953Z,2.94
2018-03-29T01:20:44.969Z,2.95
2018-03-29T01:21:44.983Z,2.86
2018-03-29T01:22:45.002Z,3.07
2018-03-29T01:23:45.024Z,3.08
2018-03-29T01:24:45.039Z,3.13
2018-03-29T01:25:45.058Z,2.99
2018-03-29T01:26:45.075Z,3.10
2018-03-29T01:27:45.088Z,3.10
2018-03-29T01:28:45.103Z,2.97
2018-03-29T01:29:45.121Z,2.86
2018-03-29T01:30:45.138Z,2.92
2018-03-29T01:31:45.157Z,2.84
2018-03-29T01:32:45.173Z,2.94
2018-03-29T01:33:45.189Z,2.83
2018-03-29T01:34:45.208Z,2.76
2018-03-29T01:35:45.232Z,2.65
2018-03-29T01:36:45.250Z,2.71
2018-03-29T01:37:45.258Z,2.62
2018-03-29T01:38:45.274Z,2.63
2018-03-29T01:39:45.295Z,2.68
2018-03-29T01:40:45.309Z,2.74
2018-03-29T01:41:45.325Z,2.69
2018-03-29T01:42:45.341Z,2.77
2018-03-29T01:43:45.360Z,2.68
2018-03-29T01:44:45.376Z,2.61
2018-03-29T01:45:45.397Z,2.63
2018-03-29T01:46:45.411Z,2.68
2018-03-29T01:47:45.424Z,2.73
2018-03-29T01:48:45.442Z,2.65
2018-03-29T01:49:45.462Z,2.55
2018-03-29T01:50:45.472Z,2.63
2018-03-29T01:51:45.489Z,2.71
2018-03-29T01:52:45.511Z,2.66
2018-03-29T01:53:45.532Z,2.69
2018-03-29T01:54:45.537Z,2.61
2018-03-29T01:55:45.558Z,2.71
2018-03-29T01:56:45.586Z,2.69
2018-03-29T01:57:45.586Z,2.68
2018-03-29T01:58:45.607Z,2.65
2018-03-29T01:59:45.626Z,2.66
2018-03-29T02:00:45.636Z,2.62
2018-03-29T02:01:45.651Z,2.56
2018-03-29T02:02:45.672Z,2.65
2018-03-29T02:03:45.686Z,2.76
2018-03-29T02:04:45.761Z,2.63
2018-03-29T02:05:45.723Z,2.61
2018-03-29T02:06:45.738Z,2.65
2018-03-29T02:07:45.793Z,2.63
2018-03-29T02:08:45.773Z,2.59
2018-03-29T02:09:45.790Z,2.62
2018-03-29T02:10:45.801Z,2.55
2018-03-29T02:11:45.821Z,2.62
2018-03-29T02:12:45.840Z,2.53
2018-03-29T02:13:45.853Z,2.61
2018-03-29T02:14:45.865Z,2.58
2018-03-29T02:15:45.885Z,2.55
2018-03-29T02:16:45.909Z,2.58
2018-03-29T02:17:45.916Z,2.62
2018-03-29T02:18:45.935Z,2.63
2018-03-29T02:19:45.950Z,2.66
2018-03-29T02:20:45.966Z,2.68
2018-03-29T02:21:45.980Z,2.63
2018-03-29T02:22:45.999Z,2.69
2018-03-29T02:23:46.015Z,2.66
2018-03-29T02:24:46.029Z,2.58
2018-03-29T02:25:46.069Z,2.45
2018-03-29T02:26:46.066Z,2.55
2018-03-29T02:27:46.080Z,2.65
2018-03-29T02:28:46.101Z,2.48
2018-03-29T02:29:46.110Z,2.58
2018-03-29T02:30:46.125Z,2.51
2018-03-29T02:31:46.144Z,2.50
2018-03-29T02:32:46.165Z,2.55
2018-03-29T02:33:46.175Z,2.62
2018-03-29T02:34:46.196Z,2.69
2018-03-29T02:35:46.211Z,2.71
2018-03-29T02:36:46.224Z,2.68
2018-03-29T02:37:46.248Z,2.66
2018-03-29T02:38:46.256Z,2.71
2018-03-29T02:39:46.277Z,2.68
2018-03-29T02:40:46.301Z,2.73
2018-03-29T02:41:46.316Z,2.69
2018-03-29T02:42:46.325Z,2.59
2018-03-29T02:43:46.336Z,2.73
2018-03-29T02:44:46.367Z,2.69
2018-03-29T02:45:46.375Z,2.62
2018-03-29T02:46:46.391Z,2.69
2018-03-29T02:47:46.403Z,2.62
2018-03-29T02:48:46.434Z,2.61
2018-03-29T02:49:46.435Z,2.58
2018-03-29T02:50:46.454Z,2.66
2018-03-29T02:51:46.468Z,2.59
2018-03-29T02:52:46.488Z,2.58
2018-03-29T02:53:46.499Z,2.59
2018-03-29T02:54:46.518Z,2.51
2018-03-29T02:55:46.542Z,2.55
2018-03-29T02:56:46.549Z,2.50
2018-03-29T02:57:46.572Z,2.58
2018-03-29T02:58:46.583Z,2.61
2018-03-29T02:59:46.598Z,2.73
2018-03-29T03:00:46.614Z,2.69
2018-03-29T03:01:46.633Z,2.76
2018-03-29T03:02:46.647Z,2.74
2018-03-29T03:03:46.664Z,2.62
2018-03-29T03:04:46.684Z,2.61
2018-03-29T03:05:46.698Z,2.61
2018-03-29T03:06:46.717Z,2.63
2018-03-29T03:07:46.733Z,2.58
2018-03-29T03:08:46.747Z,2.59
2018-03-29T03:09:46.763Z,2.61
2018-03-29T03:10:46.777Z,2.62
2018-03-29T03:11:46.792Z,2.45
2018-03-29T03:12:46.815Z,2.65
2018-03-29T03:13:46.829Z,2.63
2018-03-29T03:14:46.843Z,2.59
2018-03-29T03:15:46.861Z,2.63
2018-03-29T03:16:46.879Z,2.63
2018-03-29T03:17:46.907Z,2.55
2018-03-29T03:18:46.907Z,2.63
2018-03-29T03:19:46.922Z,2.59
2018-03-29T03:20:46.951Z,2.65
2018-03-29T03:21:46.956Z,2.61
2018-03-29T03:22:46.972Z,2.66
2018-03-29T03:23:46.994Z,2.62
2018-03-29T03:24:47.016Z,2.71
2018-03-29T03:25:47.020Z,2.69
2018-03-29T03:26:47.036Z,2.69
2018-03-29T03:27:47.051Z,2.68
2018-03-29T03:28:47.074Z,2.77
2018-03-29T03:29:47.091Z,2.65
2018-03-29T03:30:47.102Z,2.61
2018-03-29T03:31:47.121Z,2.55
2018-03-29T03:32:47.136Z,2.59
2018-03-29T03:33:47.155Z,2.63
2018-03-29T03:34:47.166Z,2.63
2018-03-29T03:35:47.183Z,2.56
2018-03-29T03:36:47.206Z,2.58
2018-03-29T03:37:47.212Z,2.48
2018-03-29T03:38:47.236Z,2.53
2018-03-29T03:39:47.245Z,2.45
2018-03-29T03:40:47.271Z,2.47
2018-03-29T03:41:47.281Z,2.59
2018-03-29T03:42:47.298Z,2.59
2018-03-29T03:43:47.312Z,2.55
2018-03-29T03:44:47.330Z,2.47
2018-03-29T03:45:47.340Z,2.48
2018-03-29T03:46:47.368Z,2.47
2018-03-29T03:47:47.376Z,2.50
2018-03-29T03:48:47.389Z,2.55
2018-03-29T03:49:47.405Z,2.55
2018-03-29T03:50:47.425Z,2.53
2018-03-29T03:51:47.439Z,2.48
2018-03-29T03:52:47.459Z,2.59
2018-03-29T03:53:47.473Z,2.44
2018-03-29T03:54:47.489Z,2.47
2018-03-29T03:55:47.499Z,2.37
2018-03-29T03:56:47.519Z,2.33
2018-03-29T03:57:47.535Z,2.40
2018-03-29T03:58:47.549Z,2.44
2018-03-29T03:59:47.564Z,2.47
2018-03-29T04:00:47.579Z,2.47
2018-03-29T04:01:47.596Z,2.38
2018-03-29T04:02:47.609Z,2.40
2018-03-29T04:03:47.629Z,2.43
2018-03-29T04:04:47.650Z,2.48
2018-03-29T04:05:47.661Z,2.45
2018-03-29T04:06:47.683Z,2.44
2018-03-29T04:07:47.698Z,2.33
2018-03-29T04:08:47.715Z,2.48
2018-03-29T04:09:47.721Z,2.50
2018-03-29T04:10:47.742Z,2.44
2018-03-29T04:11:47.757Z,2.47
2018-03-29T04:12:47.770Z,2.43
2018-03-29T04:13:47.786Z,2.37
2018-03-29T04:14:47.808Z,2.37
2018-03-29T04:15:47.823Z,2.36
2018-03-29T04:16:47.839Z,2.41
2018-03-29T04:17:47.848Z,2.43
2018-03-29T04:18:47.866Z,2.32
2018-03-29T04:19:47.878Z,2.33
2018-03-29T04:20:47.899Z,2.53
2018-03-29T04:21:47.913Z,2.53
2018-03-29T04:22:47.930Z,2.53
2018-03-29T04:23:47.943Z,2.51
2018-03-29T04:24:47.958Z,2.47
2018-03-29T04:25:47.972Z,2.40
2018-03-29T04:26:47.991Z,2.41
2018-03-29T04:27:48.006Z,2.37
2018-03-29T04:28:48.023Z,2.41
2018-03-29T04:29:48.037Z,2.41
2018-03-29T04:30:48.054Z,2.32
2018-03-29T04:31:48.068Z,2.41
2018-03-29T04:32:48.085Z,2.41
2018-03-29T04:33:48.100Z,2.45
2018-03-29T04:34:48.114Z,2.45
2018-03-29T04:35:48.128Z,2.45
2018-03-29T04:36:48.148Z,2.45
2018-03-29T04:37:48.158Z,2.48
2018-03-29T04:38:48.177Z,2.41
2018-03-29T04:39:48.192Z,2.41
2018-03-29T04:40:48.207Z,2.43
2018-03-29T04:41:48.222Z,2.33
2018-03-29T04:42:48.246Z,2.32
2018-03-29T04:43:48.251Z,2.50
2018-03-29T04:44:48.267Z,2.53
2018-03-29T04:45:48.287Z,2.51
2018-03-29T04:46:48.301Z,2.50
2018-03-29T04:47:48.317Z,2.51
2018-03-29T04:48:48.336Z,2.40
2018-03-29T04:49:48.348Z,2.41
2018-03-29T04:50:48.362Z,2.29
2018-03-29T04:51:48.383Z,2.40
2018-03-29T04:52:48.400Z,2.29
2018-03-29T04:53:48.408Z,2.37
2018-03-29T04:54:48.425Z,2.38
2018-03-29T04:55:48.447Z,2.33
2018-03-29T04:56:48.460Z,2.33
2018-03-29T04:57:48.478Z,2.37
2018-03-29T04:58:48.486Z,2.50
2018-03-29T04:59:48.509Z,2.43
2018-03-29T05:00:48.515Z,2.43
2018-03-29T05:01:48.531Z,2.41
2018-03-29T05:02:48.550Z,2.41
2018-03-29T05:03:48.567Z,2.45
2018-03-29T05:04:48.585Z,2.36
2018-03-29T05:05:48.596Z,2.38
2018-03-29T05:06:48.620Z,2.41
2018-03-29T05:07:48.629Z,2.45
2018-03-29T05:08:48.649Z,2.45
2018-03-29T05:09:48.658Z,2.45
2018-03-29T05:10:48.671Z,2.40
2018-03-29T05:11:48.697Z,2.45
2018-03-29T05:12:48.704Z,2.38
2018-03-29T05:13:48.725Z,2.36
2018-03-29T05:14:48.735Z,2.40
2018-03-29T05:15:48.751Z,2.50
2018-03-29T05:16:48.769Z,2.40
2018-03-29T05:17:48.795Z,2.36
2018-03-29T05:18:48.794Z,2.36
2018-03-29T05:19:48.814Z,2.37
2018-03-29T05:20:48.828Z,2.40
2018-03-29T05:21:48.838Z,2.48
2018-03-29T05:22:48.857Z,2.61
2018-03-29T05:23:48.876Z,2.44
2018-03-29T05:24:48.883Z,2.43
2018-03-29T05:25:48.905Z,2.38
2018-03-29T05:26:48.919Z,2.50
2018-03-29T05:27:48.930Z,2.44
2018-03-29T05:28:48.984Z,2.48
2018-03-29T05:29:48.963Z,2.41
2018-03-29T05:30:48.987Z,2.43
2018-03-29T05:31:48.994Z,2.51
2018-03-29T05:32:49.021Z,2.56
2018-03-29T05:33:49.028Z,2.48
2018-03-29T05:34:49.043Z,2.41
2018-03-29T05:35:49.058Z,2.51
2018-03-29T05:36:49.073Z,2.58
2018-03-29T05:37:49.088Z,2.47
2018-03-29T05:38:49.108Z,2.41
2018-03-29T05:39:49.127Z,2.45
2018-03-29T05:40:49.198Z,2.59
2018-03-29T05:41:49.151Z,2.59
2018-03-29T05:42:49.162Z,2.41
2018-03-29T05:43:49.183Z,2.48
2018-03-29T05:44:49.196Z,2.45
2018-03-29T05:45:49.221Z,2.38
2018-03-29T05:46:49.228Z,2.40
2018-03-29T05:47:49.243Z,2.41
2018-03-29T05:48:49.267Z,2.41
2018-03-29T05:49:49.275Z,2.43
2018-03-29T05:50:49.289Z,2.48
2018-03-29T05:51:49.305Z,2.40
2018-03-29T05:52:49.322Z,2.38
2018-03-29T05:53:49.336Z,2.43
2018-03-29T05:54:49.351Z,2.44
2018-03-29T05:55:49.372Z,2.44
2018-03-29T05:56:49.390Z,2.51
2018-03-29T05:57:49.402Z,2.50
2018-03-29T05:58:49.412Z,2.48
2018-03-29T05:59:49.431Z,2.38
2018-03-29T06:00:49.452Z,2.51
2018-03-29T06:01:49.461Z,2.56
2018-03-29T06:02:49.475Z,2.41
2018-03-29T06:03:49.505Z,2.47
2018-03-29T06:04:49.504Z,2.61
2018-03-29T06:05:49.521Z,2.55
2018-03-29T06:06:49.540Z,2.61
2018-03-29T06:07:49.552Z,2.68
2018-03-29T06:08:49.568Z,2.62
2018-03-29T06:09:49.586Z,2.61
2018-03-29T06:10:49.596Z,2.65
2018-03-29T06:11:49.615Z,2.59
2018-03-29T06:12:49.640Z,2.62
2018-03-29T06:13:49.641Z,2.66
2018-03-29T06:14:49.657Z,2.61
2018-03-29T06:15:49.671Z,2.59
2018-03-29T06:16:49.686Z,2.62
2018-03-29T06:17:49.767Z,2.59
2018-03-29T06:18:49.720Z,2.58
2018-03-29T06:19:49.731Z,2.68
2018-03-29T06:20:49.752Z,2.63
2018-03-29T06:21:49.761Z,2.63
2018-03-29T06:22:49.781Z,2.68
2018-03-29T06:23:49.796Z,2.63
2018-03-29T06:24:49.815Z,2.63
2018-03-29T06:25:49.826Z,2.58
2018-03-29T06:26:49.844Z,2.66
2018-03-29T06:27:49.856Z,2.65
2018-03-29T06:28:49.873Z,2.65
2018-03-29T06:29:49.892Z,2.59
2018-03-29T06:30:49.911Z,2.71
2018-03-29T06:31:49.925Z,2.71
2018-03-29T06:32:49.941Z,2.65
2018-03-29T06:33:49.951Z,2.61
2018-03-29T06:34:49.965Z,2.66
2018-03-29T06:35:49.989Z,2.69
2018-03-29T06:36:49.995Z,2.79
2018-03-29T06:37:50.023Z,2.77
2018-03-29T06:38:50.030Z,2.69
2018-03-29T06:39:50.047Z,2.83
2018-03-29T06:40:50.061Z,2.77
2018-03-29T06:41:50.077Z,2.84
2018-03-29T06:42:50.091Z,2.79
2018-03-29T06:43:50.105Z,2.77
2018-03-29T06:44:50.120Z,2.89
2018-03-29T06:45:50.146Z,2.95
2018-03-29T06:46:50.156Z,2.99
2018-03-29T06:47:50.170Z,2.90
2018-03-29T06:48:50.185Z,2.95
2018-03-29T06:49:50.202Z,2.92
2018-03-29T06:50:50.219Z,2.98
2018-03-29T06:51:50.230Z,2.97
2018-03-29T06:52:50.246Z,3.01
2018-03-29T06:53:50.265Z,3.02
2018-03-29T06:54:50.325Z,3.04
2018-03-29T06:55:50.301Z,3.16
2018-03-29T06:56:50.309Z,3.10
2018-03-29T06:57:50.326Z,3.13
2018-03-29T06:58:50.340Z,3.15
2018-03-29T06:59:50.355Z,3.16
2018-03-29T07:00:50.377Z,3.17
2018-03-29T07:01:50.393Z,3.23
2018-03-29T07:02:50.402Z,3.28
2018-03-29T07:03:50.418Z,3.17
2018-03-29T07:04:50.440Z,3.19
2018-03-29T07:05:50.453Z,2.98
2018-03-29T07:06:50.469Z,3.04
2018-03-29T07:07:50.484Z,3.17
2018-03-29T07:08:50.499Z,3.19
2018-03-29T07:09:50.526Z,3.20
2018-03-29T07:10:50.546Z,3.12
2018-03-29T07:11:50.552Z,3.15
2018-03-29T07:12:50.567Z,3.20
2018-03-29T07:13:50.579Z,3.20
2018-03-29T07:14:50.593Z,3.20
2018-03-29T07:15:50.615Z,3.30
2018-03-29T07:16:50.637Z,3.23
2018-03-29T07:17:50.642Z,3.33
2018-03-29T07:18:50.664Z,3.23
2018-03-29T07:19:50.677Z,3.25
2018-03-29T07:20:50.696Z,3.23
2018-03-29T07:21:50.709Z,3.28
2018-03-29T07:22:50.729Z,3.33
2018-03-29T07:23:50.739Z,3.30
2018-03-29T07:24:50.757Z,3.50
2018-03-29T07:25:50.775Z,3.41
2018-03-29T07:26:50.822Z,3.31
2018-03-29T07:27:50.802Z,3.33
2018-03-29T07:28:50.818Z,3.37
2018-03-29T07:29:50.837Z,3.30
2018-03-29T07:30:50.854Z,3.25
2018-03-29T07:31:50.869Z,3.28
2018-03-29T07:32:50.886Z,3.16
2018-03-29T07:33:50.901Z,3.17
2018-03-29T07:34:50.932Z,3.28
2018-03-29T07:35:50.939Z,3.39
2018-03-29T07:36:50.954Z,3.50
2018-03-29T07:37:50.962Z,3.39
2018-03-29T07:38:50.978Z,3.42
2018-03-29T07:39:51.001Z,3.23
2018-03-29T07:40:51.019Z,3.25
2018-03-29T07:41:51.035Z,3.35
2018-03-29T07:42:51.046Z,3.42
2018-03-29T07:43:51.061Z,3.44
2018-03-29T07:44:51.075Z,3.49
2018-03-29T07:45:51.091Z,3.46
2018-03-29T07:46:51.112Z,3.37
2018-03-29T07:47:51.125Z,3.50
2018-03-29T07:48:51.147Z,3.42
2018-03-29T07:49:51.161Z,3.45
2018-03-29T07:50:51.179Z,3.39
2018-03-29T07:51:51.195Z,3.56
2018-03-29T07:52:51.211Z,3.63
2018-03-29T07:53:51.223Z,3.53
2018-03-29T07:54:51.242Z,3.49
2018-03-29T07:55:51.253Z,3.49
2018-03-29T07:56:51.271Z,3.46
2018-03-29T07:57:51.352Z,3.50
2018-03-29T07:58:51.308Z,3.41
2018-03-29T07:59:51.341Z,3.50
2018-03-29T08:00:51.341Z,3.59
2018-03-29T08:01:51.352Z,3.56
2018-03-29T08:02:51.376Z,3.52
2018-03-29T08:03:51.386Z,3.53
2018-03-29T08:04:51.404Z,3.50
2018-03-29T08:05:51.422Z,3.46
2018-03-29T08:06:51.448Z,3.45
2018-03-29T08:07:51.450Z,3.53
2018-03-29T08:08:51.471Z,3.60
2018-03-29T08:09:51.491Z,3.64
2018-03-29T08:10:51.500Z,3.75
2018-03-29T08:11:51.519Z,3.78
2018-03-29T08:12:51.538Z,3.89
2018-03-29T08:13:51.598Z,4.00
2018-03-29T08:14:51.572Z,3.84
2018-03-29T08:15:51.590Z,3.88
2018-03-29T08:16:51.599Z,3.98
2018-03-29T08:17:51.620Z,3.92
2018-03-29T08:18:51.636Z,3.78
2018-03-29T08:19:51.649Z,3.70
2018-03-29T08:20:51.665Z,3.74
2018-03-29T08:21:51.684Z,3.52
2018-03-29T08:22:51.704Z,3.63
2018-03-29T08:23:51.716Z,3.75
2018-03-29T08:24:51.738Z,3.75
2018-03-29T08:25:51.749Z,3.81
2018-03-29T08:26:51.764Z,3.80
2018-03-29T08:27:51.788Z,3.95
2018-03-29T08:28:51.804Z,4.00
2018-03-29T08:29:51.816Z,3.88
2018-03-29T08:30:51.835Z,3.77
2018-03-29T08:31:51.850Z,3.86
2018-03-29T08:32:51.864Z,3.92
2018-03-29T08:33:51.884Z,3.81
2018-03-29T08:34:51.903Z,3.64
2018-03-29T08:35:51.919Z,3.70
2018-03-29T08:36:51.932Z,3.70
2018-03-29T08:37:51.948Z,3.60
2018-03-29T08:38:51.967Z,3.89
2018-03-29T08:39:51.986Z,4.00
2018-03-29T08:40:52.007Z,4.16
2018-03-29T08:41:52.014Z,4.10
2018-03-29T08:42:52.064Z,4.20
2018-03-29T08:43:52.053Z,4.10
2018-03-29T08:44:52.069Z,4.13
2018-03-29T08:45:52.086Z,4.14
2018-03-29T08:46:52.109Z,4.34
2018-03-29T08:47:52.118Z,4.53
2018-03-29T08:48:52.132Z,4.39
2018-03-29T08:49:52.155Z,4.49
2018-03-29T08:50:52.172Z,4.49
2018-03-29T08:51:52.190Z,4.54
2018-03-29T08:52:52.203Z,4.59
2018-03-29T08:53:52.217Z,4.67
2018-03-29T08:54:52.239Z,4.61
2018-03-29T08:55:52.257Z,4.54
2018-03-29T08:56:52.272Z,4.80
2018-03-29T08:57:52.289Z,4.79
2018-03-29T08:58:52.312Z,4.79
2018-03-29T08:59:52.326Z,4.79
2018-03-29T09:00:52.341Z,4.88
2018-03-29T09:01:52.356Z,4.71
2018-03-29T09:02:52.374Z,4.54
2018-03-29T09:03:52.387Z,4.53
2018-03-29T09:04:52.413Z,4.67
2018-03-29T09:05:52.423Z,4.64
2018-03-29T09:06:52.445Z,4.57
2018-03-29T09:07:52.457Z,4.74
2018-03-29T09:08:52.525Z,4.79
2018-03-29T09:09:52.504Z,5.05
2018-03-29T09:10:52.514Z,5.19
2018-03-29T09:11:52.534Z,5.32
2018-03-29T09:12:52.551Z,5.17
2018-03-29T09:13:52.569Z,5.11
2018-03-29T09:14:52.583Z,5.06
2018-03-29T09:15:52.599Z,4.94
2018-03-29T09:16:52.618Z,4.86
2018-03-29T09:17:52.639Z,4.87
2018-03-29T09:18:52.652Z,4.93
2018-03-29T09:19:52.674Z,4.91
2018-03-29T09:20:52.688Z,4.80
2018-03-29T09:21:52.709Z,4.69
2018-03-29T09:22:52.726Z,4.93
2018-03-29T09:23:52.742Z,4.97
2018-03-29T09:24:52.756Z,4.88
2018-03-29T09:25:52.777Z,4.99
2018-03-29T09:26:52.796Z,4.90
2018-03-29T09:27:52.816Z,4.96
2018-03-29T09:28:52.836Z,4.88
2018-03-29T09:29:52.852Z,4.83
2018-03-29T09:30:52.869Z,4.80
2018-03-29T09:31:52.892Z,4.88
2018-03-29T09:32:52.903Z,4.99
2018-03-29T09:33:52.921Z,5.22
2018-03-29T09:34:52.936Z,5.06
2018-03-29T09:35:52.958Z,5.11
2018-03-29T09:36:52.977Z,5.14
2018-03-29T09:37:52.991Z,5.15
2018-03-29T09:38:53.016Z,5.08
2018-03-29T09:39:53.026Z,5.19
2018-03-29T09:40:53.049Z,5.12
2018-03-29T09:41:53.064Z,5.12
2018-03-29T09:42:53.081Z,5.01
2018-03-29T09:43:53.101Z,4.93
2018-03-29T09:44:53.115Z,4.96
2018-03-29T09:45:53.135Z,4.91
2018-03-29T09:46:53.150Z,4.93
2018-03-29T09:47:53.170Z,4.93
2018-03-29T09:48:53.188Z,4.83
2018-03-29T09:49:53.206Z,4.69
2018-03-29T09:50:53.221Z,4.74
2018-03-29T09:51:53.245Z,4.79
2018-03-29T09:52:53.264Z,4.74
2018-03-29T09:53:53.282Z,4.64
2018-03-29T09:54:53.306Z,4.72
2018-03-29T09:55:53.312Z,4.84
2018-03-29T09:56:53.331Z,4.84
2018-03-29T09:57:53.363Z,4.97
2018-03-29T09:58:53.369Z,4.90
2018-03-29T09:59:53.385Z,4.97
2018-03-29T10:00:53.404Z,5.06
2018-03-29T10:01:53.423Z,5.35
2018-03-29T10:02:53.439Z,5.47
2018-03-29T10:03:53.463Z,5.51
2018-03-29T10:04:53.476Z,5.67
2018-03-29T10:05:53.488Z,5.45
2018-03-29T10:06:53.515Z,5.70
2018-03-29T10:07:53.522Z,5.48
2018-03-29T10:08:53.553Z,5.33
2018-03-29T10:09:53.566Z,5.38
2018-03-29T10:10:53.584Z,5.30
2018-03-29T10:11:53.599Z,5.09
2018-03-29T10:12:53.614Z,5.02
2018-03-29T10:13:53.643Z,4.93
2018-03-29T10:14:53.653Z,4.64
2018-03-29T10:15:53.669Z,4.83
2018-03-29T10:16:53.692Z,4.72
2018-03-29T10:17:53.708Z,4.53
2018-03-29T10:18:53.786Z,4.69
2018-03-29T10:19:53.745Z,4.79
2018-03-29T10:20:53.760Z,4.84
2018-03-29T10:21:53.786Z,4.83
2018-03-29T10:22:53.801Z,4.96
2018-03-29T10:23:53.818Z,4.93
2018-03-29T10:24:53.830Z,4.99
2018-03-29T10:25:53.858Z,4.88
2018-03-29T10:26:53.872Z,4.87
2018-03-29T10:27:53.909Z,4.84
2018-03-29T10:28:53.903Z,4.80
2018-03-29T10:29:53.927Z,4.69
2018-03-29T10:30:53.939Z,4.65
2018-03-29T10:31:53.957Z,4.84
2018-03-29T10:32:53.978Z,4.72
2018-03-29T10:33:53.992Z,4.59
2018-03-29T10:34:54.018Z,4.67
2018-03-29T10:35:54.059Z,4.64
2018-03-29T10:36:54.049Z,4.74
2018-03-29T10:37:54.064Z,4.84
2018-03-29T10:38:54.081Z,5.01
2018-03-29T10:39:54.101Z,5.11
2018-03-29T10:40:54.120Z,5.24
2018-03-29T10:41:54.136Z,5.30
2018-03-29T10:42:54.146Z,5.11
2018-03-29T10:43:54.166Z,5.01
2018-03-29T10:44:54.187Z,5.11
2018-03-29T10:45:54.207Z,5.11
2018-03-29T10:46:54.219Z,5.24
2018-03-29T10:47:54.242Z,5.20
2018-03-29T10:48:54.256Z,5.30
2018-03-29T10:49:54.277Z,5.30
2018-03-29T10:50:54.296Z,5.20
2018-03-29T10:51:54.314Z,5.35
2018-03-29T10:52:54.332Z,5.32
2018-03-29T10:53:54.347Z,5.35
2018-03-29T10:54:54.360Z,5.38
2018-03-29T10:55:54.387Z,5.22
2018-03-29T10:56:54.404Z,5.17
2018-03-29T10:57:54.416Z,5.23
2018-03-29T10:58:54.439Z,5.05
2018-03-29T10:59:54.455Z,5.05
2018-03-29T11:00:54.470Z,5.02
2018-03-29T11:01:54.490Z,5.06
2018-03-29T11:02:54.509Z,5.01
2018-03-29T11:03:54.524Z,4.97
2018-03-29T11:04:54.545Z,4.87
2018-03-29T11:05:54.564Z,4.74
2018-03-29T11:06:54.575Z,4.79
2018-03-29T11:07:54.595Z,4.71
2018-03-29T11:08:54.618Z,4.69
2018-03-29T11:09:54.630Z,4.64
2018-03-29T11:10:54.649Z,4.67
2018-03-29T11:11:54.667Z,4.79
2018-03-29T11:12:54.689Z,4.79
2018-03-29T11:13:54.704Z,4.57
2018-03-29T11:14:54.723Z,4.69
2018-03-29T11:15:54.745Z,4.77
2018-03-29T11:16:54.761Z,4.68
2018-03-29T11:17:54.776Z,4.67
2018-03-29T11:18:54.794Z,4.51
2018-03-29T11:19:54.807Z,4.64
2018-03-29T11:20:54.829Z,4.49
2018-03-29T11:21:54.847Z,4.46
2018-03-29T11:22:54.858Z,4.50
2018-03-29T11:23:54.880Z,4.61
2018-03-29T11:24:54.895Z,4.68
2018-03-29T11:25:54.917Z,4.69
2018-03-29T11:26:54.930Z,4.83
2018-03-29T11:27:54.952Z,4.83
2018-03-29T11:28:54.966Z,4.79
2018-03-29T11:29:54.984Z,4.91
2018-03-29T11:30:54.998Z,4.99
2018-03-29T11:31:55.017Z,4.88
2018-03-29T11:32:55.035Z,4.97
2018-03-29T11:33:55.053Z,4.99
2018-03-29T11:34:55.069Z,4.83
2018-03-29T11:35:55.093Z,4.83
2018-03-29T11:36:55.109Z,4.79
2018-03-29T11:37:55.127Z,4.83
2018-03-29T11:38:55.140Z,4.83
2018-03-29T11:39:55.159Z,4.88
2018-03-29T11:40:55.178Z,4.97
2018-03-29T11:41:55.193Z,4.94
2018-03-29T11:42:55.208Z,5.05
2018-03-29T11:43:55.231Z,4.97
2018-03-29T11:44:55.247Z,4.91
2018-03-29T11:45:55.264Z,4.93
2018-03-29T11:46:55.282Z,4.80
2018-03-29T11:47:55.302Z,4.87
2018-03-29T11:48:55.325Z,4.79
2018-03-29T11:49:55.334Z,4.88
2018-03-29T11:50:55.353Z,4.74
2018-03-29T11:51:55.369Z,4.90
2018-03-29T11:52:55.391Z,5.05
2018-03-29T11:53:55.403Z,5.15
2018-03-29T11:54:55.422Z,5.32
2018-03-29T11:55:55.440Z,5.33
2018-03-29T11:56:55.452Z,5.47
2018-03-29T11:57:55.494Z,5.40
2018-03-29T11:58:55.492Z,5.55
2018-03-29T11:59:55.509Z,5.40
2018-03-29T12:00:55.528Z,5.48
2018-03-29T12:01:55.541Z,5.45
2018-03-29T12:02:55.562Z,5.52
2018-03-29T12:03:55.582Z,5.60
2018-03-29T12:04:55.597Z,5.52
2018-03-29T12:05:55.625Z,5.66
2018-03-29T12:06:55.633Z,5.66
2018-03-29T12:07:55.652Z,5.67
2018-03-29T12:08:55.673Z,5.62
2018-03-29T12:09:55.686Z,5.69
2018-03-29T12:10:55.708Z,5.59
2018-03-29T12:11:55.730Z,5.47
2018-03-29T12:12:55.742Z,5.42
2018-03-29T12:13:55.766Z,5.41
2018-03-29T12:14:55.783Z,5.51
2018-03-29T12:15:55.801Z,5.33
2018-03-29T12:16:55.816Z,5.38
2018-03-29T12:17:55.844Z,5.32
2018-03-29T12:18:55.853Z,5.48
2018-03-29T12:19:55.875Z,5.58
2018-03-29T12:20:55.898Z,5.49
2018-03-29T12:21:55.906Z,5.26
2018-03-29T12:22:55.931Z,5.23
2018-03-29T12:23:55.952Z,5.33
2018-03-29T12:24:55.964Z,5.47
2018-03-29T12:25:55.984Z,5.59
2018-03-29T12:26:55.995Z,5.84
2018-03-29T12:27:56.027Z,5.95
2018-03-29T12:28:56.038Z,5.99
2018-03-29T12:29:56.068Z,5.83
2018-03-29T12:30:56.085Z,5.93
2018-03-29T12:31:56.090Z,5.93
2018-03-29T12:32:56.123Z,5.75
2018-03-29T12:33:56.126Z,5.93
2018-03-29T12:34:56.145Z,5.87
2018-03-29T12:35:56.165Z,5.96
2018-03-29T12:36:56.185Z,6.17
2018-03-29T12:37:56.208Z,6.51
2018-03-29T12:38:56.223Z,7.12
2018-03-29T12:39:56.244Z,6.96
2018-03-29T12:40:56.260Z,6.91
2018-03-29T12:41:56.282Z,6.58
2018-03-29T12:42:56.298Z,6.64
2018-03-29T12:43:56.315Z,6.53
2018-03-29T12:44:56.341Z,6.42
2018-03-29T12:45:56.355Z,6.64
2018-03-29T12:46:56.370Z,6.68
2018-03-29T12:47:56.397Z,6.81
2018-03-29T12:48:56.442Z,7.23
2018-03-29T12:49:56.432Z,7.63
2018-03-29T12:50:56.453Z,8.32
2018-03-29T12:51:56.478Z,8.20
2018-03-29T12:52:56.487Z,8.14
2018-03-29T12:53:56.526Z,9.06
2018-03-29T12:54:56.534Z,8.76
2018-03-29T12:55:56.549Z,8.63
2018-03-29T12:56:56.570Z,8.31
2018-03-29T12:57:56.588Z,7.94
2018-03-29T12:58:56.611Z,7.48
2018-03-29T12:59:56.641Z,7.32
2018-03-29T13:00:56.654Z,7.04
2018-03-29T13:01:56.679Z,6.93
2018-03-29T13:02:56.692Z,7.18
2018-03-29T13:03:56.721Z,7.52
2018-03-29T13:04:56.737Z,7.73
2018-03-29T13:05:56.772Z,8.79
2018-03-29T13:06:56.776Z,9.01
2018-03-29T13:07:56.820Z,9.48
2018-03-29T13:08:56.820Z,10.73
2018-03-29T13:09:56.846Z,10.83
2018-03-29T13:10:56.861Z,11.39
2018-03-29T13:11:56.887Z,11.42
2018-03-29T13:12:56.915Z,11.75
2018-03-29T13:13:56.923Z,11.74
2018-03-29T13:14:56.953Z,11.21
2018-03-29T13:15:56.973Z,10.28
2018-03-29T13:16:56.996Z,9.80
2018-03-29T13:17:57.018Z,9.60
2018-03-29T13:18:57.047Z,9.50